Time;durP1;ratioP1;P1;durP2;ratioP2;P2;SDS_P1;SDS_P2;PMS_P1;PMS_P2;Temp;Humidity;BMP_temperature;BMP_pressure;BME280_temperature;BME280_humidity;BME280_pressure;Samples;Min_cycle;Max_cycle;Signal;HPM_P1;HPM_P2
2022/03/04 00:02:25;;;;;;;13.83;10.47;;;;;;;3.88;45.72;98903.81;7004431;28;20233;-79
2022/03/04 00:05:47;;;;;;;14.47;10.80;;;;;;;3.95;45.81;98918.16;7007370;28;20215;-80
2022/03/04 00:09:17;;;;;;;13.23;10.07;;;;;;;4.00;45.29;98910.53;7007392;28;20609;-79
2022/03/04 00:12:46;;;;;;;14.27;10.43;;;;;;;3.86;46.09;98895.16;7005455;28;20219;-80
2022/03/04 00:16:09;;;;;;;13.30;10.20;;;;;;;4.09;45.17;98906.91;7007348;28;20211;-80
2022/03/04 00:19:30;;;;;;;12.33;10.10;;;;;;;4.24;45.38;98899.91;7008163;28;20218;-80
2022/03/04 00:22:52;;;;;;;14.17;10.50;;;;;;;4.19;45.10;98898.75;7006550;28;20235;-80
2022/03/04 00:26:14;;;;;;;11.57;9.83;;;;;;;4.09;45.05;98908.72;7006734;28;20217;-80
2022/03/04 00:29:35;;;;;;;18.13;11.23;;;;;;;3.75;46.00;98889.25;7006878;28;20826;-80
2022/03/04 00:32:58;;;;;;;15.80;10.63;;;;;;;4.03;45.19;98918.22;7005954;28;20267;-79
2022/03/04 00:36:23;;;;;;;15.43;10.97;;;;;;;3.95;45.33;98909.34;7006846;28;20207;-79
2022/03/04 00:39:45;;;;;;;14.07;10.63;;;;;;;4.00;44.80;98928.34;7006944;28;20212;-80
2022/03/04 00:43:06;;;;;;;17.97;11.60;;;;;;;3.67;45.55;98916.69;7005531;28;20323;-81
2022/03/04 00:46:28;;;;;;;15.63;11.03;;;;;;;3.88;46.04;98918.97;7006508;28;20293;-80
2022/03/04 00:49:51;;;;;;;13.83;10.67;;;;;;;3.29;46.65;98925.16;7006949;28;20211;-81
2022/03/04 00:53:12;;;;;;;16.83;10.73;;;;;;;3.15;47.28;98940.88;7008610;28;20248;-79
2022/03/04 00:56:34;;;;;;;17.17;11.00;;;;;;;2.50;49.05;98928.00;7009267;28;20215;-79
2022/03/04 00:59:56;;;;;;;13.67;10.50;;;;;;;3.46;47.08;98932.25;7012659;28;20271;-81
2022/03/04 01:03:17;;;;;;;17.63;11.43;;;;;;;3.63;46.33;98906.53;7008359;28;20236;-81
2022/03/04 01:06:40;;;;;;;16.87;11.37;;;;;;;3.73;45.38;98918.72;6979413;28;20199;-80
2022/03/04 01:10:02;;;;;;;17.43;11.13;;;;;;;3.15;47.88;98924.88;6978341;28;20235;-80
2022/03/04 01:17:39;;;;;;;15.30;10.87;;;;;;;3.39;46.93;98928.56;6962279;28;20296;-79
2022/03/04 01:21:00;;;;;;;16.40;10.43;;;;;;;3.07;46.93;98922.19;6971863;28;20235;-79
2022/03/04 01:24:23;;;;;;;16.13;11.30;;;;;;;3.28;47.34;98928.81;6972256;28;20231;-79
2022/03/04 01:27:45;;;;;;;17.47;10.73;;;;;;;3.48;46.63;98921.44;6974062;28;20210;-80
2022/03/04 01:31:09;;;;;;;17.07;11.63;;;;;;;3.72;46.21;98917.06;6970866;28;20259;-80
2022/03/04 01:34:31;;;;;;;15.27;10.27;;;;;;;3.56;46.26;98927.66;6971275;28;20348;-80
2022/03/04 01:37:52;;;;;;;15.00;10.80;;;;;;;3.82;45.77;98917.78;6971571;28;20218;-81
2022/03/04 01:41:15;;;;;;;17.77;11.43;;;;;;;3.53;45.87;98905.78;6971009;28;20222;-80
2022/03/04 01:44:37;;;;;;;17.17;11.47;;;;;;;3.61;46.18;98904.00;6971461;28;20232;-79
2022/03/04 01:47:58;;;;;;;15.47;10.97;;;;;;;3.74;45.54;98920.44;6971212;28;20215;-80
2022/03/04 01:51:20;;;;;;;14.00;10.90;;;;;;;3.72;45.09;98913.59;6970287;28;20737;-80
2022/03/04 01:54:42;;;;;;;14.30;10.63;;;;;;;3.82;45.53;98906.25;6970753;28;20780;-80
2022/03/04 01:58:05;;;;;;;15.27;11.20;;;;;;;3.20;47.00;98893.28;6971458;28;20272;-80
2022/03/04 02:01:26;;;;;;;21.80;12.80;;;;;;;2.69;48.66;98911.88;6970511;28;20362;-80
2022/03/04 02:04:50;;;;;;;14.80;10.90;;;;;;;2.91;47.42;98916.72;6971686;28;20258;-80
2022/03/04 02:08:11;;;;;;;18.53;11.80;;;;;;;3.43;46.40;98900.56;6971386;28;20212;-80
2022/03/04 02:11:42;;;;;;;20.83;12.50;;;;;;;3.71;46.02;98904.72;6969916;28;20223;-81
2022/03/04 02:15:16;;;;;;;16.13;10.90;;;;;;;3.53;45.84;98906.63;6970544;28;20194;-81
2022/03/04 02:18:37;;;;;;;15.67;11.50;;;;;;;3.54;46.83;98892.31;6970936;28;20231;-80
2022/03/04 02:22:01;;;;;;;19.53;11.30;;;;;;;3.55;46.75;98891.31;6969885;28;20228;-80
2022/03/04 02:25:37;;;;;;;18.50;11.37;;;;;;;3.41;46.69;98899.91;6971133;28;20727;-80
2022/03/04 02:28:58;;;;;;;15.53;11.10;;;;;;;3.59;45.93;98887.34;6975998;28;20207;-80
2022/03/04 02:32:20;;;;;;;21.53;13.20;;;;;;;3.21;47.32;98894.97;6975886;28;20227;-80
2022/03/04 02:35:42;;;;;;;17.37;11.43;;;;;;;3.37;46.28;98901.22;6976841;28;20694;-80
2022/03/04 02:39:05;;;;;;;17.60;12.00;;;;;;;3.46;46.28;98883.44;6976404;28;20200;-80
2022/03/04 02:42:27;;;;;;;18.07;11.47;;;;;;;3.14;46.92;98865.44;6975548;28;20239;-80
2022/03/04 02:45:49;;;;;;;15.60;11.30;;;;;;;2.71;46.92;98889.44;6976696;28;20212;-81
2022/03/04 02:49:11;;;;;;;17.17;11.33;;;;;;;2.89;47.69;98892.91;6976644;28;20580;-80
2022/03/04 02:52:33;;;;;;;16.43;12.03;;;;;;;3.08;47.98;98891.88;6975669;28;20238;-80
2022/03/04 02:55:56;;;;;;;16.20;11.43;;;;;;;2.92;47.38;98881.09;6976637;28;20239;-80
2022/03/04 02:59:18;;;;;;;15.47;12.00;;;;;;;3.07;47.31;98891.03;6976792;28;20205;-80
2022/03/04 03:02:39;;;;;;;14.90;11.50;;;;;;;2.76;47.93;98879.16;6976195;28;20280;-80
2022/03/04 03:06:01;;;;;;;22.43;12.57;;;;;;;2.98;47.24;98896.47;6976746;28;20202;-80
2022/03/04 03:09:22;;;;;;;18.03;11.60;;;;;;;2.90;48.12;98897.22;6977303;28;20682;-80
2022/03/04 03:12:46;;;;;;;16.60;11.03;;;;;;;3.07;47.54;98891.03;6974898;28;20386;-80
2022/03/04 03:16:07;;;;;;;16.07;11.50;;;;;;;2.87;48.13;98900.22;6976389;28;20637;-79
2022/03/04 03:19:29;;;;;;;18.97;11.40;;;;;;;3.05;47.61;98881.53;6977496;28;20195;-80
2022/03/04 03:22:51;;;;;;;19.80;12.53;;;;;;;2.76;48.25;98887.16;6976473;28;20236;-80
2022/03/04 03:26:12;;;;;;;18.40;12.10;;;;;;;2.90;48.10;98894.56;6976996;28;20342;-80
2022/03/04 03:29:36;;;;;;;17.50;12.50;;;;;;;2.70;47.51;98855.81;6977114;28;20659;-80
2022/03/04 03:32:57;;;;;;;18.33;11.60;;;;;;;2.84;47.44;98908.50;6976357;28;20218;-80
2022/03/04 03:36:20;;;;;;;16.90;11.47;;;;;;;2.76;48.37;98900.47;6976890;28;20199;-80
2022/03/04 03:39:54;;;;;;;17.33;11.47;;;;;;;2.38;48.85;98892.81;6975074;28;20212;-80
2022/03/04 03:43:16;;;;;;;18.57;12.67;;;;;;;2.46;49.19;98911.50;6976972;28;20236;-79
2022/03/04 03:46:39;;;;;;;16.63;12.10;;;;;;;2.55;48.50;98913.22;6977633;28;20821;-80
2022/03/04 03:50:00;;;;;;;17.20;12.60;;;;;;;2.62;48.71;98897.50;6977676;28;20206;-81
2022/03/04 03:53:22;;;;;;;15.20;12.40;;;;;;;2.89;48.17;98922.19;6976693;28;20249;-80
2022/03/04 03:56:44;;;;;;;20.97;12.37;;;;;;;2.70;46.99;98910.88;6979785;28;20210;-81
2022/03/04 04:00:06;;;;;;;15.10;11.73;;;;;;;2.47;48.52;98910.50;6980887;28;20206;-81
2022/03/04 04:03:29;;;;;;;17.23;11.63;;;;;;;2.58;48.22;98918.25;6980991;28;20333;-81
2022/03/04 04:06:51;;;;;;;17.13;11.63;;;;;;;2.70;48.27;98938.34;6991870;28;20203;-81
2022/03/04 04:10:13;;;;;;;17.80;12.20;;;;;;;2.90;47.97;98931.84;6979263;28;20214;-80
2022/03/04 04:13:34;;;;;;;17.27;12.03;;;;;;;2.66;47.39;98931.63;6973433;28;20284;-81
2022/03/04 04:16:56;;;;;;;20.80;12.87;;;;;;;2.25;48.45;98940.19;6974150;28;20260;-81
2022/03/04 04:20:23;;;;;;;18.30;12.00;;;;;;;2.00;49.15;98940.06;6973529;28;20206;-81
2022/03/04 04:23:45;;;;;;;21.33;12.80;;;;;;;2.11;49.86;98942.53;6973922;28;20219;-79
2022/03/04 04:27:08;;;;;;;21.10;13.27;;;;;;;2.24;49.65;98946.50;6973957;28;20690;-81
2022/03/04 04:30:30;;;;;;;18.23;11.67;;;;;;;2.28;49.29;98931.94;6973152;28;20298;-81
2022/03/04 04:33:52;;;;;;;18.23;11.97;;;;;;;2.10;50.17;98936.41;6973906;28;20207;-80
2022/03/04 04:37:15;;;;;;;23.17;13.23;;;;;;;1.69;49.90;98942.19;6973580;28;20561;-81
2022/03/04 04:40:37;;;;;;;16.77;12.57;;;;;;;1.93;49.98;98949.63;6973477;28;20198;-81
2022/03/04 04:43:59;;;;;;;22.40;14.33;;;;;;;2.09;49.65;98939.19;6973051;28;20223;-81
2022/03/04 04:47:20;;;;;;;19.40;12.23;;;;;;;2.29;49.46;98946.91;6973407;28;20214;-81
2022/03/04 04:50:42;;;;;;;23.60;13.27;;;;;;;2.13;49.87;98930.75;6972505;28;20310;-82
2022/03/04 04:54:05;;;;;;;18.83;11.23;;;;;;;2.28;48.56;98933.75;6973053;28;20372;-83
2022/03/04 04:57:27;;;;;;;19.10;12.57;;;;;;;2.01;49.05;98933.78;6972964;28;20195;-82
2022/03/04 05:00:53;;;;;;;19.37;12.83;;;;;;;2.05;48.98;98956.41;6972511;28;20238;-82
2022/03/04 05:04:15;;;;;;;19.30;12.57;;;;;;;1.79;50.08;98945.66;6992527;28;20232;-82
2022/03/04 05:07:36;;;;;;;20.47;12.87;;;;;;;1.86;49.68;98954.72;7000888;28;20302;-81
2022/03/04 05:11:00;;;;;;;22.03;13.43;;;;;;;1.85;49.54;98963.69;6999677;28;20226;-81
2022/03/04 05:14:22;;;;;;;18.07;12.90;;;;;;;1.76;49.14;98959.22;7002350;28;20187;-82
2022/03/04 05:17:44;;;;;;;18.97;12.70;;;;;;;1.72;49.52;98973.78;7001743;28;20213;-82
2022/03/04 05:21:06;;;;;;;20.17;13.00;;;;;;;1.71;50.16;98964.13;7001219;28;20253;-81
2022/03/04 05:24:27;;;;;;;16.23;11.60;;;;;;;1.86;49.22;98960.03;7001610;28;20237;-82
2022/03/04 05:27:50;;;;;;;18.00;12.10;;;;;;;1.79;48.52;98968.72;7001986;28;20680;-82
2022/03/04 05:31:13;;;;;;;22.30;13.93;;;;;;;1.25;50.01;98980.06;7000327;28;20230;-81
2022/03/04 05:34:34;;;;;;;18.87;13.43;;;;;;;0.35;53.25;98983.16;7001110;28;20255;-81
2022/03/04 05:37:56;;;;;;;21.53;12.40;;;;;;;1.03;53.07;98966.28;7001143;28;20551;-81
2022/03/04 05:41:18;;;;;;;20.33;12.67;;;;;;;1.18;51.70;98964.88;6992527;28;20235;-80
2022/03/04 05:44:41;;;;;;;19.93;13.33;;;;;;;1.52;50.70;98989.94;6997833;28;20588;-78
2022/03/04 05:48:04;;;;;;;24.67;13.23;;;;;;;1.68;49.71;98982.19;6978698;28;20235;-80
2022/03/04 05:51:26;;;;;;;21.83;12.40;;;;;;;1.19;50.46;98972.69;6980934;28;20226;-79
2022/03/04 05:54:48;;;;;;;18.80;13.57;;;;;;;1.16;51.26;98980.09;6980959;28;20303;-80
2022/03/04 05:58:10;;;;;;;21.23;13.20;;;;;;;1.08;51.63;98975.47;6971598;28;20202;-80
2022/03/04 06:01:32;;;;;;;26.60;13.37;;;;;;;1.36;50.63;99000.34;6969842;28;20252;-79
2022/03/04 06:04:54;;;;;;;19.57;13.33;;;;;;;1.69;50.80;99002.47;6971810;28;20268;-80
2022/03/04 06:08:16;;;;;;;23.07;14.00;;;;;;;0.79;51.72;99013.66;6998639;28;20749;-80
2022/03/04 06:11:37;;;;;;;20.37;12.73;;;;;;;1.65;50.79;99012.56;6997192;28;20709;-80
2022/03/04 06:14:59;;;;;;;23.13;13.20;;;;;;;1.63;50.65;99016.34;6985999;28;20277;-79
2022/03/04 06:18:22;;;;;;;21.73;11.80;;;;;;;1.27;50.32;99011.81;6971076;28;20818;-80
2022/03/04 06:21:44;;;;;;;20.50;14.20;;;;;;;1.61;50.53;99013.81;6993539;28;20217;-81
2022/03/04 06:25:06;;;;;;;21.20;13.63;;;;;;;1.84;49.71;99023.13;6999901;28;20681;-80
2022/03/04 06:28:28;;;;;;;17.43;12.43;;;;;;;1.75;49.31;99031.13;7000155;28;20255;-82
2022/03/04 06:31:49;;;;;;;18.83;12.53;;;;;;;1.72;49.05;99024.28;6999818;28;20625;-82
2022/03/04 06:35:12;;;;;;;16.83;12.20;;;;;;;1.78;49.27;99036.97;7001833;28;20212;-81
2022/03/04 06:38:35;;;;;;;23.97;16.03;;;;;;;1.58;49.58;99032.72;7000801;28;20669;-81
2022/03/04 06:41:57;;;;;;;20.77;14.80;;;;;;;1.02;50.70;99023.00;6999943;28;20217;-81
2022/03/04 06:45:19;;;;;;;20.73;13.43;;;;;;;1.77;49.35;99027.34;7001292;28;20222;-80
2022/03/04 06:48:41;;;;;;;19.43;13.50;;;;;;;1.80;49.30;99023.56;7001847;28;20237;-80
2022/03/04 06:52:04;;;;;;;24.77;14.23;;;;;;;1.86;49.45;99033.59;7000141;28;20298;-81
2022/03/04 06:55:26;;;;;;;21.87;14.50;;;;;;;2.05;49.24;99029.06;7001625;28;20238;-80
2022/03/04 06:58:48;;;;;;;22.83;15.50;;;;;;;2.27;48.89;99027.84;7001973;28;20202;-82
2022/03/04 07:02:10;;;;;;;19.83;14.47;;;;;;;2.43;48.93;99036.03;7000982;28;21912;-82
2022/03/04 07:05:32;;;;;;;21.87;14.87;;;;;;;3.08;47.98;99049.84;7003018;28;20225;-82
2022/03/04 07:08:55;;;;;;;27.83;15.27;;;;;;;3.10;48.00;99045.22;7001391;28;20297;-83
2022/03/04 07:12:17;;;;;;;26.90;15.30;;;;;;;3.71;45.17;99048.69;6992877;28;20713;-80
2022/03/04 07:15:39;;;;;;;20.60;14.60;;;;;;;3.89;46.28;99051.34;7004297;28;20227;-81
2022/03/04 07:19:00;;;;;;;23.73;15.13;;;;;;;3.75;45.59;99055.41;7001838;28;20223;-80
2022/03/04 07:22:22;;;;;;;25.60;16.23;;;;;;;4.16;44.98;99040.47;7002605;28;20224;-80
2022/03/04 07:25:45;;;;;;;22.27;14.03;;;;;;;4.67;44.50;99065.22;7004685;28;20705;-80
2022/03/04 07:29:07;;;;;;;22.53;15.37;;;;;;;4.63;44.55;99053.19;7004312;28;20339;-78
2022/03/04 07:32:30;;;;;;;28.70;15.73;;;;;;;4.97;42.79;99061.13;6999608;28;20226;-79
2022/03/04 07:35:52;;;;;;;20.43;14.70;;;;;;;5.42;43.12;99051.66;7000051;28;20329;-79
2022/03/04 07:39:13;;;;;;;20.83;15.13;;;;;;;6.20;41.53;99050.09;7000757;28;20206;-79
2022/03/04 07:42:36;;;;;;;22.43;15.00;;;;;;;5.97;41.48;99052.69;6999231;28;20227;-79
2022/03/04 07:45:58;;;;;;;49.00;31.17;;;;;;;6.04;41.75;99072.41;6994617;28;20251;-79
2022/03/04 07:49:20;;;;;;;30.67;20.53;;;;;;;6.45;41.43;99055.22;6999495;28;20673;-79
2022/03/04 07:52:42;;;;;;;32.70;21.77;;;;;;;6.35;41.43;99030.47;6969178;28;20215;-78
2022/03/04 07:56:04;;;;;;;29.97;20.57;;;;;;;6.79;40.91;99045.00;6996249;28;20204;-78
2022/03/04 07:59:27;;;;;;;29.93;18.80;;;;;;;7.01;40.41;99056.78;6999059;28;20756;-79
2022/03/04 08:02:49;;;;;;;34.63;16.60;;;;;;;7.94;39.03;99051.00;6997527;28;20252;-79
2022/03/04 08:06:10;;;;;;;27.73;16.43;;;;;;;8.21;38.58;99053.13;6999824;28;20279;-81
2022/03/04 08:09:32;;;;;;;23.77;15.80;;;;;;;8.06;39.27;99036.97;7002842;28;20210;-81
2022/03/04 08:12:55;;;;;;;34.57;20.47;;;;;;;8.15;38.74;99059.19;7006180;28;20237;-83
2022/03/04 08:33:57;;;;;;;23.93;16.87;;;;;;;9.52;33.49;99020.38;6980640;22;20234;-75
2022/03/04 08:37:19;;;;;;;24.97;16.53;;;;;;;9.00;34.01;98957.19;6995572;28;20204;-75
2022/03/04 08:40:41;;;;;;;25.87;17.80;;;;;;;7.47;37.24;99069.19;6989702;28;20201;-74
2022/03/04 08:44:03;;;;;;;22.27;15.97;;;;;;;7.37;37.96;99057.88;6994635;28;20568;-75
2022/03/04 08:47:25;;;;;;;22.77;17.77;;;;;;;6.59;38.58;98971.44;6999712;28;20205;-74
2022/03/04 08:50:48;;;;;;;22.47;15.70;;;;;;;6.71;37.90;98979.94;6999401;28;20213;-74
2022/03/04 08:54:09;;;;;;;26.30;16.27;;;;;;;6.19;38.95;98926.13;6999855;28;20666;-74
2022/03/04 08:57:32;;;;;;;23.13;16.40;;;;;;;6.64;38.06;98958.34;6990011;28;20652;-75
2022/03/04 09:00:53;;;;;;;25.63;16.33;;;;;;;7.58;37.26;99063.41;6971223;28;20206;-74
2022/03/04 09:04:17;;;;;;;25.20;16.70;;;;;;;6.61;36.95;98869.47;6971454;28;20229;-74
2022/03/04 09:07:40;;;;;;;23.97;16.23;;;;;;;7.94;37.00;99061.75;6964531;28;20710;-74
2022/03/04 09:11:02;;;;;;;25.67;17.40;;;;;;;8.14;36.01;99070.97;6943845;28;20243;-74
2022/03/04 09:14:24;;;;;;;21.90;15.90;;;;;;;7.90;36.30;99026.38;6943637;28;20210;-74
2022/03/04 09:17:45;;;;;;;24.33;17.67;;;;;;;7.89;35.98;99021.22;6990013;28;20322;-75
2022/03/04 09:21:07;;;;;;;20.70;14.63;;;;;;;8.44;35.28;99064.63;7009905;28;20651;-74
2022/03/04 09:24:30;;;;;;;24.00;16.37;;;;;;;8.84;35.24;99061.44;7013745;28;20217;-75
2022/03/04 09:27:52;;;;;;;25.73;17.23;;;;;;;8.66;35.38;99059.13;7014835;28;20560;-75
2022/03/04 09:31:14;;;;;;;22.37;16.87;;;;;;;8.33;35.32;99051.66;6999500;28;20600;-75
2022/03/04 09:34:36;;;;;;;26.13;15.53;;;;;;;8.66;35.06;99071.75;7012748;28;20198;-80
2022/03/04 09:37:57;;;;;;;21.67;14.50;;;;;;;8.73;33.63;99061.94;7005154;28;20209;-75
2022/03/04 09:41:21;;;;;;;21.33;15.97;;;;;;;9.27;33.58;99029.88;6991126;28;20220;-75
2022/03/04 09:44:43;;;;;;;21.83;16.27;;;;;;;8.77;34.34;99047.09;7007791;28;20260;-76
2022/03/04 09:48:05;;;;;;;24.23;17.13;;;;;;;9.33;33.15;99049.81;6998163;28;20202;-76
2022/03/04 09:51:27;;;;;;;24.60;16.97;;;;;;;9.56;32.96;99028.94;6999118;28;20232;-77
2022/03/04 09:54:50;;;;;;;25.10;16.33;;;;;;;8.85;32.96;98961.75;6996882;28;20226;-75
2022/03/04 09:58:15;;;;;;;25.33;17.33;;;;;;;9.84;32.82;99049.47;6996880;28;20225;-75
2022/03/04 10:01:38;;;;;;;25.20;15.70;;;;;;;10.01;31.41;99058.09;6996304;28;20266;-76
2022/03/04 10:05:01;;;;;;;25.70;17.63;;;;;;;10.25;31.64;99010.03;6997011;28;20591;-76
2022/03/04 10:08:24;;;;;;;24.87;16.47;;;;;;;10.32;29.93;99002.81;6992722;28;20229;-76
2022/03/04 10:11:46;;;;;;;36.93;20.43;;;;;;;11.17;31.79;99039.06;6994872;28;20661;-75
2022/03/04 10:15:09;;;;;;;22.93;17.57;;;;;;;11.53;28.52;99041.44;6996731;28;20202;-78
2022/03/04 10:18:31;;;;;;;24.47;16.97;;;;;;;10.32;29.56;98993.88;6993647;28;20230;-74
2022/03/04 10:21:55;;;;;;;22.47;15.17;;;;;;;10.29;29.72;99032.00;6996389;28;20648;-74
2022/03/04 10:25:19;;;;;;;23.87;16.37;;;;;;;9.82;30.46;99027.31;6996195;28;20267;-75
2022/03/04 10:28:49;;;;;;;23.27;15.60;;;;;;;11.16;28.04;99029.31;6996555;28;20229;-76
2022/03/04 10:32:19;;;;;;;22.77;15.10;;;;;;;11.05;28.26;99011.00;6995957;28;20214;-75
2022/03/04 10:35:40;;;;;;;22.63;15.40;;;;;;;10.45;28.08;98980.50;6996383;28;20213;-82
2022/03/04 10:39:09;;;;;;;24.47;15.90;;;;;;;10.60;26.77;98928.09;6996359;28;20205;-82
2022/03/04 10:42:51;;;;;;;19.37;13.53;;;;;;;11.50;26.52;99021.06;6995513;28;20247;-82
2022/03/04 10:46:14;;;;;;;18.70;13.83;;;;;;;11.01;26.57;98938.78;6996195;28;20253;-83
2022/03/04 10:49:37;;;;;;;19.30;14.00;;;;;;;11.17;26.71;99019.34;7001281;28;20210;-80
2022/03/04 10:53:01;;;;;;;21.00;15.30;;;;;;;10.83;26.40;99025.69;7000746;28;20677;-76
2022/03/04 10:56:22;;;;;;;20.57;14.43;;;;;;;10.99;26.38;99016.41;7001370;28;20201;-76
2022/03/04 10:59:55;;;;;;;18.63;14.00;;;;;;;10.21;25.95;98919.03;7001145;28;20210;-76
2022/03/04 11:03:19;;;;;;;22.20;14.27;;;;;;;11.45;25.53;99028.97;7000799;28;20206;-76
2022/03/04 11:06:45;;;;;;;17.23;13.23;;;;;;;10.76;25.26;98941.22;7000054;28;20286;-79
2022/03/04 11:10:08;;;;;;;17.97;14.30;;;;;;;10.48;25.97;98959.38;7000365;28;20283;-78
2022/03/04 11:13:32;;;;;;;18.27;12.97;;;;;;;12.73;25.05;98947.09;7000380;28;20214;-76
2022/03/04 11:16:54;;;;;;;15.90;12.30;;;;;;;13.11;22.79;98985.84;6999574;28;20533;-77
2022/03/04 11:20:16;;;;;;;21.77;14.03;;;;;;;10.68;25.03;98902.81;6999601;28;20230;-76
2022/03/04 11:23:39;;;;;;;18.97;13.63;;;;;;;11.21;25.19;99007.13;7000888;28;20685;-77
2022/03/04 11:27:04;;;;;;;17.50;11.77;;;;;;;11.78;24.59;99000.16;7000457;28;20226;-76
2022/03/04 11:30:32;;;;;;;16.67;12.57;;;;;;;12.24;23.13;98990.13;7000267;28;20210;-76
2022/03/04 11:33:55;;;;;;;14.93;11.23;;;;;;;11.95;22.72;98992.44;6999646;28;20324;-76
2022/03/04 11:37:17;;;;;;;16.47;12.67;;;;;;;12.50;22.66;98991.91;7000429;28;20244;-77
2022/03/04 11:40:50;;;;;;;18.33;12.23;;;;;;;13.03;22.26;98996.94;6999505;28;20239;-77
2022/03/04 11:44:15;;;;;;;19.37;12.83;;;;;;;11.19;25.14;98987.59;7000136;28;20207;-76
2022/03/04 11:47:41;;;;;;;17.30;12.27;;;;;;;12.48;22.84;98988.59;7000144;28;20205;-76
2022/03/04 11:51:15;;;;;;;16.53;11.70;;;;;;;12.39;23.81;98979.88;6999762;28;20672;-76
2022/03/04 11:54:37;;;;;;;13.83;10.37;;;;;;;13.91;20.56;98922.72;6999549;28;20283;-76
2022/03/04 11:58:05;;;;;;;13.47;9.20;;;;;;;12.62;19.76;98898.28;6998980;28;20216;-76
2022/03/04 12:01:27;;;;;;;14.30;10.73;;;;;;;12.57;20.82;98979.22;6999438;28;20214;-76
2022/03/04 12:04:50;;;;;;;13.77;10.17;;;;;;;13.40;21.83;98970.91;6998992;28;20283;-76
2022/03/04 12:08:12;;;;;;;14.33;10.90;;;;;;;13.18;21.82;98986.69;6999118;28;20654;-76
2022/03/04 12:11:34;;;;;;;15.13;11.50;;;;;;;12.33;21.55;98904.22;6998681;28;20271;-76
2022/03/04 12:15:29;;;;;;;17.10;11.60;;;;;;;13.44;22.18;98962.13;6999314;28;20225;-76
2022/03/04 12:18:51;;;;;;;17.70;11.73;;;;;;;13.43;21.17;98827.75;6999550;28;20207;-76
2022/03/04 12:22:13;;;;;;;15.33;12.00;;;;;;;14.62;21.17;98956.44;6998927;28;20207;-76
2022/03/04 12:26:10;;;;;;;18.33;12.27;;;;;;;15.45;20.55;98944.66;6999081;28;20327;-77
2022/03/04 12:29:45;;;;;;;16.07;11.83;;;;;;;14.13;21.48;98948.38;6998302;28;20221;-76
2022/03/04 12:33:10;;;;;;;18.10;12.70;;;;;;;13.89;21.29;98924.84;6997611;28;20216;-76
2022/03/04 12:36:31;;;;;;;16.73;12.70;;;;;;;14.47;21.18;98928.84;6999525;28;20200;-87
2022/03/04 12:39:53;;;;;;;16.30;11.93;;;;;;;14.36;20.92;98867.22;6998345;28;20687;-75
2022/03/04 12:43:15;;;;;;;16.10;11.23;;;;;;;15.11;20.83;98888.31;6998187;28;20303;-76
2022/03/04 12:46:39;;;;;;;17.20;12.57;;;;;;;15.24;20.43;98926.97;6999345;28;20229;-75
2022/03/04 12:50:02;;;;;;;17.33;12.43;;;;;;;14.97;20.16;98868.66;6994488;28;20230;-75
2022/03/04 12:53:27;;;;;;;16.70;12.13;;;;;;;15.97;19.78;98917.41;6995013;28;20570;-75
2022/03/04 12:56:53;;;;;;;17.17;12.60;;;;;;;15.91;19.57;98921.06;6998228;28;20537;-76
2022/03/04 13:00:14;;;;;;;18.20;13.00;;;;;;;16.38;19.15;98908.25;6998077;28;20219;-76
2022/03/04 13:03:36;;;;;;;17.93;12.50;;;;;;;15.09;20.12;98893.97;6997316;28;20228;-76
2022/03/04 13:07:00;;;;;;;15.77;12.37;;;;;;;14.67;21.41;98899.56;6997681;28;20233;-76
2022/03/04 13:10:22;;;;;;;17.70;12.33;;;;;;;14.78;20.82;98906.94;6997075;28;20482;-76
2022/03/04 13:13:48;;;;;;;18.00;12.70;;;;;;;14.05;21.40;98883.63;6997355;28;20224;-76
2022/03/04 13:17:13;;;;;;;20.37;13.83;;;;;;;15.05;20.52;98884.63;6997645;28;20676;-76
2022/03/04 13:20:34;;;;;;;16.93;12.83;;;;;;;14.70;21.29;98904.56;6997231;28;20238;-76
2022/03/04 13:23:57;;;;;;;14.67;10.97;;;;;;;14.18;20.97;98903.28;6997522;28;20219;-76
2022/03/04 13:27:19;;;;;;;14.03;11.33;;;;;;;14.72;20.98;98900.56;6997135;28;20220;-76
2022/03/04 13:30:50;;;;;;;13.23;9.90;;;;;;;15.53;19.80;98884.53;6997247;28;20578;-76
2022/03/04 13:34:14;;;;;;;16.90;10.77;;;;;;;14.91;20.04;98898.63;6996566;28;20223;-76
2022/03/04 13:37:40;;;;;;;15.83;11.37;;;;;;;14.41;19.94;98816.66;6997438;28;20204;-75
2022/03/04 13:41:21;;;;;;;17.20;11.57;;;;;;;14.41;20.37;98897.19;6997196;28;20713;-76
2022/03/04 13:44:56;;;;;;;14.77;10.63;;;;;;;14.81;20.46;98898.34;7011225;28;20239;-76
2022/03/04 13:48:17;;;;;;;15.13;10.73;;;;;;;14.33;20.92;98889.38;6995705;28;20256;-76
2022/03/04 13:51:39;;;;;;;17.77;11.40;;;;;;;14.60;20.19;98879.84;7006920;28;20214;-75
2022/03/04 13:55:02;;;;;;;16.90;10.57;;;;;;;14.28;21.33;98864.81;7010802;28;20581;-76
2022/03/04 13:58:28;;;;;;;14.57;10.60;;;;;;;14.69;20.57;98883.91;7007640;28;20240;-76
2022/03/04 14:01:50;;;;;;;14.10;10.23;;;;;;;14.35;20.14;98870.97;7009869;28;20227;-76
2022/03/04 14:05:13;;;;;;;12.27;9.33;;;;;;;13.70;20.69;98821.00;7008242;28;20252;-78
2022/03/04 14:08:35;;;;;;;10.93;8.63;;;;;;;14.45;18.79;98877.53;7002543;28;20210;-77
2022/03/04 14:11:57;;;;;;;9.93;8.50;;;;;;;14.49;19.31;98876.03;7009991;28;20207;-77
2022/03/04 14:15:20;;;;;;;12.43;8.37;;;;;;;14.69;19.23;98876.56;7009642;28;20215;-78
2022/03/04 14:18:44;;;;;;;16.00;9.83;;;;;;;13.95;19.25;98805.53;6996929;28;20225;-88
2022/03/04 14:22:06;;;;;;;12.00;9.10;;;;;;;14.75;20.12;98870.22;6998143;28;20205;-76
2022/03/04 14:25:27;;;;;;;12.83;9.27;;;;;;;14.66;19.26;98822.78;7001214;28;20267;-75
2022/03/04 14:32:26;;;;;;;12.63;9.00;;;;;;;14.25;19.14;98857.13;6998675;28;20565;-73
2022/03/04 14:35:49;;;;;;;14.37;10.17;;;;;;;13.82;19.92;98870.72;7001336;28;20737;-75
2022/03/04 14:39:11;;;;;;;11.70;8.57;;;;;;;14.27;19.63;98863.16;7001403;28;20224;-75
2022/03/04 14:42:33;;;;;;;13.73;8.43;;;;;;;13.61;19.92;98795.28;7001282;28;20212;-74
2022/03/04 14:45:57;;;;;;;10.60;7.87;;;;;;;14.96;19.17;98853.44;7001175;28;20233;-74
2022/03/04 14:49:20;;;;;;;12.83;8.70;;;;;;;14.70;18.75;98796.00;7001139;28;20255;-77
2022/03/04 14:52:42;;;;;;;11.63;8.27;;;;;;;14.75;19.16;98855.84;7005827;28;20713;-79
2022/03/04 14:56:04;;;;;;;11.83;8.20;;;;;;;13.79;19.28;98878.44;7001252;28;20206;-79
2022/03/04 14:59:25;;;;;;;11.40;8.23;;;;;;;14.41;19.48;98867.34;7001052;28;20535;-74
2022/03/04 15:02:48;;;;;;;13.17;8.40;;;;;;;13.96;19.01;98847.00;7001095;28;20211;-74
2022/03/04 15:06:11;;;;;;;12.47;9.23;;;;;;;12.77;20.36;98826.59;7000937;28;20601;-74
2022/03/04 15:09:34;;;;;;;14.10;8.67;;;;;;;13.62;19.81;98818.59;7001419;28;20293;-76
2022/03/04 15:12:55;;;;;;;12.20;8.63;;;;;;;13.55;19.77;98868.47;7000650;28;20257;-74
2022/03/04 15:16:17;;;;;;;12.87;8.83;;;;;;;12.99;19.69;98822.50;7000941;28;20269;-75
2022/03/04 15:19:40;;;;;;;10.90;8.10;;;;;;;13.85;19.71;98872.97;7001035;28;20209;-76
2022/03/04 15:23:04;;;;;;;12.10;8.10;;;;;;;13.27;19.83;98868.91;7000438;28;20208;-75
2022/03/04 15:26:25;;;;;;;10.90;7.80;;;;;;;13.54;19.15;98878.50;7000926;28;20241;-74
2022/03/04 15:29:47;;;;;;;10.43;7.83;;;;;;;12.76;19.97;98808.69;7000384;28;20302;-74
2022/03/04 15:33:09;;;;;;;12.87;8.33;;;;;;;12.57;19.94;98781.78;6999231;28;20208;-74
2022/03/04 15:36:31;;;;;;;13.20;7.43;;;;;;;13.85;19.66;98855.88;7000419;28;20206;-74
2022/03/04 15:39:54;;;;;;;12.77;8.27;;;;;;;13.65;19.01;98831.72;7000005;28;20684;-74
2022/03/04 15:43:16;;;;;;;9.13;7.53;;;;;;;13.94;19.46;98852.66;7000129;28;20208;-74
2022/03/04 15:46:37;;;;;;;9.67;7.90;;;;;;;13.96;19.36;98871.41;7000233;28;20225;-74
2022/03/04 15:49:59;;;;;;;12.37;8.23;;;;;;;13.18;19.57;98869.41;6999844;28;20213;-74
2022/03/04 15:53:27;;;;;;;10.93;7.80;;;;;;;13.07;19.75;98867.41;6999842;28;20238;-74
2022/03/04 15:56:51;;;;;;;14.50;8.93;;;;;;;13.74;19.34;98865.56;6999903;28;20564;-74
2022/03/04 16:00:13;;;;;;;11.50;8.77;;;;;;;13.63;19.74;98854.66;6999697;28;20593;-74
2022/03/04 16:03:36;;;;;;;13.17;9.07;;;;;;;12.79;20.55;98884.00;6999667;28;20218;-74
2022/03/04 16:06:57;;;;;;;11.87;8.50;;;;;;;12.96;20.43;98862.69;6999399;28;20229;-74
2022/03/04 16:10:19;;;;;;;10.13;8.20;;;;;;;13.47;19.95;98874.19;6999421;28;20218;-74